• Join FlightAware (Why Join?)
  • Login
  • US Flag 
09:18AM EDT


 

Airport Tracker/Info


-or-


 

Live Flight TrackerFlight Track Log ✈ VH-AHX ✈ 12-Jun-2013 ✈ YSCN / CDU - YSBK / BWU

Flight Track Log - Related Links

Times and Time Zones

All times are in EDT time to prevent confusion due to time zone crossing. See the VH-AHX flight status page for this flight to view local times or setup timezone preferences in your user account.

Time Position Orientation Groundspeed Altitude Reporting Facility
EDT Latitude Longitude Course Direction KTS MPH feet Rate Location/Type
07:10PM -34.0402 150.6872 360° North 100  Level Aus ATC (Calculated)
07:10PM -34.0402 150.6872 171° South 100  Level Aus ATC (Calculated)
07:11PM -34.1049 150.7001 53° Northeast 100  Level Aus ATC (Calculated)
07:13PM -34.0933 150.7188 53° Northeast  Level Estimated
07:13PM -34.2182 150.7227 North 100  Level Aus ATC (Calculated)
07:14PM -34.0858 150.7308 53° Northeast  Level Estimated
07:15PM -34.2128 150.7276 37° Northeast  Level Estimated
07:16PM -34.2091 150.7310 37° Northeast  Level Estimated
07:16PM -34.3031 150.7397 360° North 100  Level Aus ATC (Calculated)
07:16PM -34.3031 150.7397 29° Northeast 100  Level Aus ATC (Calculated)
07:18PM -34.2990 150.7424 29° Northeast  Level Estimated
07:18PM -34.4305 150.7653 353° North 100  Level Aus ATC (Calculated)
07:19PM -34.2957 150.7446 29° Northeast  Level Estimated
07:20PM -34.4268 150.7670 20° North  Level Estimated
07:20PM -34.4942 150.7781 354° North 100  Level Aus ATC (Calculated)
07:21PM -34.4233 150.7685 20° North  Level Estimated
07:22PM -34.4897 150.7798 17° North  Level Estimated
07:23PM -34.4862 150.7811 17° North  Level Estimated
07:24PM -34.4827 150.7824 17° North  Level Estimated
07:25PM -34.4792 150.7837 17° North  Level Estimated
07:26PM -34.4757 150.7850 17° North  Level Estimated
07:26PM -34.5277 150.7833 16° North  Level Aus ATC (Calculated)
07:28PM -34.5216 150.7854 16° North  Level Estimated
07:28PM -34.5277 150.7833 16° North  Level Aus ATC (Calculated)
07:30PM -34.5211 150.7856 16° North  Level Estimated
07:30PM -34.5277 150.7833 360° North  Level Aus ATC (Calculated)
07:31PM -34.5277 150.7833 16° North  Level Aus ATC (Calculated)
07:32PM -34.5228 150.7850 16° North  Level Estimated
07:33PM -34.5224 150.7852 16° North  Level Estimated
07:33PM -34.5277 150.7833 16° North  Level Aus ATC (Calculated)
07:34PM -34.5189 150.7864 16° North  Level Estimated
07:34PM -34.5277 150.7833 16° North  Level Aus ATC (Calculated)
07:35PM -34.5211 150.7856 16° North  Level Estimated
07:36PM -34.5233 150.7849 16° North  Level Estimated
07:36PM -34.5444 150.7859 15° North  Level Aus ATC (Calculated)
07:38PM -34.5395 150.7876 15° North  Level Estimated
07:39PM -34.5360 150.7887 15° North  Level Estimated
07:39PM -34.5528 150.7872 173° South  Level Aus ATC (Calculated)
07:40PM -34.5571 150.7879 North  Level Aus ATC (Calculated)
07:41PM -34.5479 150.7888 15° North  Level Estimated
07:41PM -34.5592 150.7883 360° North  Level Aus ATC (Calculated)
07:41PM -34.5592 150.7883 North  Level Aus ATC (Calculated)
07:42PM -34.5524 150.7894 15° North  Level Estimated
07:43PM -34.5536 150.7900 15° North  Level Estimated
07:44PM -34.5501 150.7911 15° North  Level Estimated
07:45PM -34.5465 150.7923 15° North  Level Estimated
07:46PM -34.5430 150.7934 15° North  Level Estimated
07:47PM -34.5394 150.7945 15° North  Level Estimated
07:48PM -34.5359 150.7957 15° North  Level Estimated
07:49PM -34.5323 150.7968 15° North  Level Estimated
07:50PM -34.5288 150.7979 15° North  Level Estimated
07:51PM -34.5253 150.7990 15° North  Level Estimated
07:52PM -34.5217 150.8001 15° North  Level Estimated
07:53PM -34.5182 150.8013 15° North  Level Estimated
07:54PM -34.5146 150.8024 15° North  Level Estimated
07:55PM -34.5111 150.8035 15° North  Level Estimated
07:56PM -34.5076 150.8046 15° North  Level Estimated
07:57PM -34.5040 150.8057 15° North  Level Estimated
07:58PM -34.5005 150.8069 15° North  Level Estimated